Redford, MI

11:59 AM EDT on March 27, 2015 (GMT -0400)
Redford Twp | | Change Station
CLOSE
Current Station
Personal Weather Station
Location: Redford, MI
Elevation: 633 ft
Nearby Weather Stations

Elev 633 ft 42.40 °N, 83.31 °W | Updated 9 seconds ago

Overcast
Overcast
25.9 °F
Feels Like 18 °F
N
7.6
Wind Variable Wind from NNW
Gusts 12.1 mph

Today
High -- | Low -- °F
--% Chance of Precip.
Yesterday
High -- | Low -- °F
Precip. -- in
7:24 AM 7:53 PM
First Quarter, 53% visible
Pressure 30.04 in
Visibility 9.0 miles
Clouds Mostly Cloudy 3000 ft
Overcast 4000 ft
Windchill 18 °F
Dew Point 8 °F
Humidity 46%
Rainfall 0.00 in
Snow Depth Not available.
UV 2 out of 12
Pollen 3.60 out of 12
Air Quality Not available.
Flu Activity Not available.
METAR KDTW 271553Z 34009KT 9SM -SN BKN030 OVC040 M03/M10 A3002 RMK AO2 SLP173 P0000 T10281100

More Conditions Fewer Conditions

Pressure 30.04 in
Visibility 9.0 miles
Clouds Mostly Cloudy 3000 ft
Overcast 4000 ft
Windchill 18 °F
Dew Point 8 °F
Humidity 46%
Rainfall 0.00 in
Snow Depth Not available.
UV 2 out of 12
Pollen 3.60 out of 12
Air Quality Not available.
Flu Activity Not available.
METAR KDTW 271553Z 34009KT 9SM -SN BKN030 OVC040 M03/M10 A3002 RMK AO2 SLP173 P0000 T10281100

More Conditions Fewer Conditions

10-Day Weather Forecast

Almanac

Astronomy

Mar. 27, 2015 Rise Set
Actual Time
Civil Twilight
Nautical Twilight
Astronomical Twilight
Moon
Length of Visible Light
Length of Day
Tomorrow will be .
, % of the Moon is Illuminated

Today's Extremes

State Highs State Lows

Community

WunderPhotos

Upload Photos

1,808,762 photos uploaded!

WunderBlogs® & News

Nearby

Air Quality

  Air Quality AQ Index Pollutant
Not available.

Snow Depth

Station Depth Elevation

Earthquake Activity

City Distance Mag. Time & Date
Minimum magnitude displayed is 2.5.

Coastal Water Temperatures

Place Temperature

Stations

Nearby Weather Stations

Station Location Temp. Windchill Dew Point Humidity Wind Precip. Elev Updated Type